Overview Statistics Trail Chart Weather Telemetry Raw packets
 

This is the latest recevied weather packets stored in our database for station/object WX4SGA. If no packets are shown the sender has not sent any weather packets the latest 10 day(s).

<< 45 46 47 48 49 50 51 >>
Time Temp. Humidity Pressure Rain* Wind** Luminosity Snow
1788306096 28.33° C 84% 1017.6 hPa 0 mm - 14 W/m² -
1788305791 28.33° C 83% 1017.6 hPa 0 mm - 17 W/m² -
1788305486 28.33° C 83% 1017.6 hPa 0 mm - 20 W/m² -
1788305186 28.33° C 82% 1017.6 hPa 0 mm - 23 W/m² -
1788304882 28.89° C 81% 1017.3 hPa 0 mm - 23 W/m² -
1788304578 28.89° C 81% 1017.3 hPa 0 mm - 25 W/m² -
1788304274 28.89° C 80% 1017.3 hPa 0 mm - 28 W/m² -
1788303969 28.89° C 80% 1017.3 hPa 0 mm - 27 W/m² -
1788303670 28.89° C 79% 1017.3 hPa 0 mm - 28 W/m² -
1788303365 29.44° C 79% 1017.3 hPa 0 mm - 32 W/m² -
1788303064 29.44° C 78% 1017.3 hPa 0 mm - 27 W/m² -
1788302761 30° C 76% 1017.3 hPa 0 mm - 32 W/m² -
1788302456 30° C 75% 1017.3 hPa 0 mm - 32 W/m² -
1788302152 30.56° C 73% 1017.3 hPa 0 mm - 56 W/m² -
1788301847 31.11° C 70% 1017.3 hPa 0 mm - 78 W/m² -
1788301543 32.22° C 70% 1017.3 hPa 0 mm - 78 W/m² -
1788301238 32.78° C 61% 1016.9 hPa 0 mm - 206 W/m² -
1788300934 32.78° C 61% 1017.3 hPa 0 mm - 222 W/m² -
1788300629 32.78° C 60% 1016.9 hPa 0 mm - 247 W/m² -
1788300324 32.78° C 62% 1016.9 hPa 0 mm - 262 W/m² -
1788300022 32.78° C 62% 1016.9 hPa 0 mm - 267 W/m² -
1788299720 32.78° C 61% 1016.9 hPa 0 mm - 226 W/m² -
1788299415 32.78° C 60% 1017.3 hPa 0 mm - 310 W/m² -
1788299114 32.78° C 61% 1016.9 hPa 0 mm - 327 W/m² -
1788298808 32.78° C 59% 1017.3 hPa 0 mm - 340 W/m² -

* Rain latest hour (hover to see other rain measurements)
** Current wind speed in m/s (hover to see current wind gust speed)